sensor_id;sensor_type;location;lat;lon;timestamp;temperature;humidity
2757;DHT22;1386;50.862;6.494;2023-09-30T00:01:49;14.20;99.90
2757;DHT22;1386;50.862;6.494;2023-09-30T00:04:42;14.20;99.90
2757;DHT22;1386;50.862;6.494;2023-09-30T00:07:26;14.20;99.90
2757;DHT22;1386;50.862;6.494;2023-09-30T00:10:09;14.20;99.90
2757;DHT22;1386;50.862;6.494;2023-09-30T00:13:08;14.20;99.90
2757;DHT22;1386;50.862;6.494;2023-09-30T00:15:50;14.20;99.90
2757;DHT22;1386;50.862;6.494;2023-09-30T00:18:48;14.20;99.90
2757;DHT22;1386;50.862;6.494;2023-09-30T00:21:30;14.10;99.90
2757;DHT22;1386;50.862;6.494;2023-09-30T00:24:41;14.10;99.90
2757;DHT22;1386;50.862;6.494;2023-09-30T00:30:20;14.00;99.90
2757;DHT22;1386;50.862;6.494;2023-09-30T00:33:15;14.00;99.90
2757;DHT22;1386;50.862;6.494;2023-09-30T00:36:19;14.00;99.90
2757;DHT22;1386;50.862;6.494;2023-09-30T00:39:13;14.00;99.90
2757;DHT22;1386;50.862;6.494;2023-09-30T00:42:14;14.00;99.90
2757;DHT22;1386;50.862;6.494;2023-09-30T00:44:54;14.00;99.90
2757;DHT22;1386;50.862;6.494;2023-09-30T00:47:45;14.00;99.90
2757;DHT22;1386;50.862;6.494;2023-09-30T00:50:32;14.00;99.90
2757;DHT22;1386;50.862;6.494;2023-09-30T00:53:23;14.00;99.90
2757;DHT22;1386;50.862;6.494;2023-09-30T00:56:03;14.00;99.90
2757;DHT22;1386;50.862;6.494;2023-09-30T01:01:54;14.00;99.90
2757;DHT22;1386;50.862;6.494;2023-09-30T01:04:46;14.00;99.90
2757;DHT22;1386;50.862;6.494;2023-09-30T01:10:42;13.90;99.90
2757;DHT22;1386;50.862;6.494;2023-09-30T01:13:47;13.90;99.90
2757;DHT22;1386;50.862;6.494;2023-09-30T01:16:49;13.80;99.90
2757;DHT22;1386;50.862;6.494;2023-09-30T01:19:34;13.80;99.90
2757;DHT22;1386;50.862;6.494;2023-09-30T01:25:56;13.70;99.90
2757;DHT22;1386;50.862;6.494;2023-09-30T01:28:44;13.70;99.90
2757;DHT22;1386;50.862;6.494;2023-09-30T01:32:43;13.70;99.90
2757;DHT22;1386;50.862;6.494;2023-09-30T01:44:38;13.70;99.90
2757;DHT22;1386;50.862;6.494;2023-09-30T01:47:37;13.70;99.90
2757;DHT22;1386;50.862;6.494;2023-09-30T01:53:39;13.60;99.90
2757;DHT22;1386;50.862;6.494;2023-09-30T01:56:20;13.60;99.90
2757;DHT22;1386;50.862;6.494;2023-09-30T01:58:55;13.60;99.90
2757;DHT22;1386;50.862;6.494;2023-09-30T02:10:46;13.70;99.90
2757;DHT22;1386;50.862;6.494;2023-09-30T02:13:58;13.60;99.90
2757;DHT22;1386;50.862;6.494;2023-09-30T02:17:23;13.70;99.90
2757;DHT22;1386;50.862;6.494;2023-09-30T02:20:23;13.60;99.90
2757;DHT22;1386;50.862;6.494;2023-09-30T02:26:44;13.70;99.90
2757;DHT22;1386;50.862;6.494;2023-09-30T02:30:02;13.70;99.90
2757;DHT22;1386;50.862;6.494;2023-09-30T02:32:56;13.70;99.90
2757;DHT22;1386;50.862;6.494;2023-09-30T02:35:34;13.70;99.90
2757;DHT22;1386;50.862;6.494;2023-09-30T02:41:52;13.60;99.90
2757;DHT22;1386;50.862;6.494;2023-09-30T02:47:51;13.60;99.90
2757;DHT22;1386;50.862;6.494;2023-09-30T02:50:57;13.50;99.90
2757;DHT22;1386;50.862;6.494;2023-09-30T02:54:17;13.50;99.90
2757;DHT22;1386;50.862;6.494;2023-09-30T03:01:01;13.50;99.90
2757;DHT22;1386;50.862;6.494;2023-09-30T03:04:11;13.40;99.90
2757;DHT22;1386;50.862;6.494;2023-09-30T03:07:25;13.40;99.90
2757;DHT22;1386;50.862;6.494;2023-09-30T03:14:18;13.40;99.90
2757;DHT22;1386;50.862;6.494;2023-09-30T03:17:21;13.40;99.90
2757;DHT22;1386;50.862;6.494;2023-09-30T03:20:38;13.40;99.90
2757;DHT22;1386;50.862;6.494;2023-09-30T03:24:08;13.30;99.90
2757;DHT22;1386;50.862;6.494;2023-09-30T03:27:12;13.30;99.90
2757;DHT22;1386;50.862;6.494;2023-09-30T03:30:22;13.20;99.90
2757;DHT22;1386;50.862;6.494;2023-09-30T03:33:31;13.20;99.90
2757;DHT22;1386;50.862;6.494;2023-09-30T03:36:47;13.20;99.90
2757;DHT22;1386;50.862;6.494;2023-09-30T03:46:44;13.10;99.90
2757;DHT22;1386;50.862;6.494;2023-09-30T04:04:35;13.00;99.90
2757;DHT22;1386;50.862;6.494;2023-09-30T04:10:49;12.90;99.90
2757;DHT22;1386;50.862;6.494;2023-09-30T04:13:53;12.80;99.90
2757;DHT22;1386;50.862;6.494;2023-09-30T04:17:19;12.80;99.90
2757;DHT22;1386;50.862;6.494;2023-09-30T04:23:41;12.90;99.90
2757;DHT22;1386;50.862;6.494;2023-09-30T04:30:19;12.90;99.90
2757;DHT22;1386;50.862;6.494;2023-09-30T04:33:13;12.90;99.90
2757;DHT22;1386;50.862;6.494;2023-09-30T04:40:06;12.90;99.90
2757;DHT22;1386;50.862;6.494;2023-09-30T04:43:09;12.90;99.90
2757;DHT22;1386;50.862;6.494;2023-09-30T04:46:31;12.90;99.90
2757;DHT22;1386;50.862;6.494;2023-09-30T04:52:42;12.90;99.90
2757;DHT22;1386;50.862;6.494;2023-09-30T04:59:22;12.90;99.90
2757;DHT22;1386;50.862;6.494;2023-09-30T05:05:04;12.90;99.90
2757;DHT22;1386;50.862;6.494;2023-09-30T05:05:49;12.80;99.90
2757;DHT22;1386;50.862;6.494;2023-09-30T05:08:37;12.80;99.90
2757;DHT22;1386;50.862;6.494;2023-09-30T05:15:06;12.70;99.90
2757;DHT22;1386;50.862;6.494;2023-09-30T06:52:38;12.70;99.90
2757;DHT22;1386;50.862;6.494;2023-09-30T06:55:05;12.90;99.90
2757;DHT22;1386;50.862;6.494;2023-09-30T06:57:33;13.30;99.90
2757;DHT22;1386;50.862;6.494;2023-09-30T07:00:01;13.50;99.90
2757;DHT22;1386;50.862;6.494;2023-09-30T07:02:29;13.60;99.90
2757;DHT22;1386;50.862;6.494;2023-09-30T07:04:57;13.70;99.90
2757;DHT22;1386;50.862;6.494;2023-09-30T07:07:24;13.80;99.90
2757;DHT22;1386;50.862;6.494;2023-09-30T07:09:53;13.70;99.90
2757;DHT22;1386;50.862;6.494;2023-09-30T07:12:23;13.70;99.90
2757;DHT22;1386;50.862;6.494;2023-09-30T07:14:59;13.70;99.90
2757;DHT22;1386;50.862;6.494;2023-09-30T07:17:36;13.70;99.90
2757;DHT22;1386;50.862;6.494;2023-09-30T07:20:10;13.70;99.90
2757;DHT22;1386;50.862;6.494;2023-09-30T07:22:48;13.80;99.90
2757;DHT22;1386;50.862;6.494;2023-09-30T07:25:22;13.80;99.90
2757;DHT22;1386;50.862;6.494;2023-09-30T07:28:08;13.90;99.90
2757;DHT22;1386;50.862;6.494;2023-09-30T07:31:15;14.00;99.90
2757;DHT22;1386;50.862;6.494;2023-09-30T07:33:59;14.00;99.90
2757;DHT22;1386;50.862;6.494;2023-09-30T07:36:34;14.00;99.90
2757;DHT22;1386;50.862;6.494;2023-09-30T07:39:07;14.10;99.90
2757;DHT22;1386;50.862;6.494;2023-09-30T08:01:38;15.10;99.90
2757;DHT22;1386;50.862;6.494;2023-09-30T08:04:06;15.20;99.90
2757;DHT22;1386;50.862;6.494;2023-09-30T08:06:33;15.30;99.90
2757;DHT22;1386;50.862;6.494;2023-09-30T08:09:00;15.40;99.90
2757;DHT22;1386;50.862;6.494;2023-09-30T08:11:28;15.60;99.90
2757;DHT22;1386;50.862;6.494;2023-09-30T08:13:59;15.70;99.90
2757;DHT22;1386;50.862;6.494;2023-09-30T08:16:34;15.80;99.90
2757;DHT22;1386;50.862;6.494;2023-09-30T08:19:03;16.00;99.90
2757;DHT22;1386;50.862;6.494;2023-09-30T08:21:30;16.20;99.90
2757;DHT22;1386;50.862;6.494;2023-09-30T08:23:57;16.30;99.90
2757;DHT22;1386;50.862;6.494;2023-09-30T08:26:24;16.40;99.90
2757;DHT22;1386;50.862;6.494;2023-09-30T08:28:51;16.50;99.90
2757;DHT22;1386;50.862;6.494;2023-09-30T08:31:18;16.60;99.90
2757;DHT22;1386;50.862;6.494;2023-09-30T08:33:47;16.70;99.90
2757;DHT22;1386;50.862;6.494;2023-09-30T08:36:15;16.80;99.90
2757;DHT22;1386;50.862;6.494;2023-09-30T08:38:42;16.90;99.90
2757;DHT22;1386;50.862;6.494;2023-09-30T08:41:09;17.00;99.90
2757;DHT22;1386;50.862;6.494;2023-09-30T08:43:38;17.00;99.90
2757;DHT22;1386;50.862;6.494;2023-09-30T08:46:05;17.10;99.90
2757;DHT22;1386;50.862;6.494;2023-09-30T08:48:33;17.20;99.90
2757;DHT22;1386;50.862;6.494;2023-09-30T08:51:02;17.30;99.90
2757;DHT22;1386;50.862;6.494;2023-09-30T08:53:31;17.50;99.90
2757;DHT22;1386;50.862;6.494;2023-09-30T08:55:59;17.70;99.90
2757;DHT22;1386;50.862;6.494;2023-09-30T08:58:29;17.60;99.90
2757;DHT22;1386;50.862;6.494;2023-09-30T09:00:57;17.80;99.90
2757;DHT22;1386;50.862;6.494;2023-09-30T09:03:28;17.80;99.90
2757;DHT22;1386;50.862;6.494;2023-09-30T09:05:55;18.00;99.90
2757;DHT22;1386;50.862;6.494;2023-09-30T09:08:22;18.00;99.90
2757;DHT22;1386;50.862;6.494;2023-09-30T09:10:56;18.00;99.90
2757;DHT22;1386;50.862;6.494;2023-09-30T09:13:23;18.20;99.90
2757;DHT22;1386;50.862;6.494;2023-09-30T09:16:04;18.40;99.90
2757;DHT22;1386;50.862;6.494;2023-09-30T09:18:32;18.30;99.90
2757;DHT22;1386;50.862;6.494;2023-09-30T09:21:09;18.50;99.90
2757;DHT22;1386;50.862;6.494;2023-09-30T09:23:41;18.70;99.90
2757;DHT22;1386;50.862;6.494;2023-09-30T09:26:10;18.80;99.90
2757;DHT22;1386;50.862;6.494;2023-09-30T09:28:37;18.90;99.90
2757;DHT22;1386;50.862;6.494;2023-09-30T09:31:23;19.00;99.90
2757;DHT22;1386;50.862;6.494;2023-09-30T09:33:50;19.10;99.90
2757;DHT22;1386;50.862;6.494;2023-09-30T09:36:17;19.10;99.90
2757;DHT22;1386;50.862;6.494;2023-09-30T09:38:46;19.10;99.90
2757;DHT22;1386;50.862;6.494;2023-09-30T09:41:15;19.20;99.90
2757;DHT22;1386;50.862;6.494;2023-09-30T09:43:42;19.30;99.90
2757;DHT22;1386;50.862;6.494;2023-09-30T09:46:10;19.40;99.90
2757;DHT22;1386;50.862;6.494;2023-09-30T09:48:37;19.40;99.90
2757;DHT22;1386;50.862;6.494;2023-09-30T09:51:05;19.50;99.90
2757;DHT22;1386;50.862;6.494;2023-09-30T09:53:35;19.70;99.90
2757;DHT22;1386;50.862;6.494;2023-09-30T09:56:03;19.90;99.90
2757;DHT22;1386;50.862;6.494;2023-09-30T09:58:41;20.00;99.90
2757;DHT22;1386;50.862;6.494;2023-09-30T10:01:11;19.90;99.90
2757;DHT22;1386;50.862;6.494;2023-09-30T10:03:42;20.10;99.90
2757;DHT22;1386;50.862;6.494;2023-09-30T10:06:23;20.20;99.90
2757;DHT22;1386;50.862;6.494;2023-09-30T10:08:55;20.30;99.90
2757;DHT22;1386;50.862;6.494;2023-09-30T10:11:29;20.40;99.90
2757;DHT22;1386;50.862;6.494;2023-09-30T10:13:58;20.50;99.90
2757;DHT22;1386;50.862;6.494;2023-09-30T10:16:47;20.50;99.90
2757;DHT22;1386;50.862;6.494;2023-09-30T10:19:15;20.50;99.90
2757;DHT22;1386;50.862;6.494;2023-09-30T10:24:56;20.80;99.90
2757;DHT22;1386;50.862;6.494;2023-09-30T10:27:30;20.80;99.90
2757;DHT22;1386;50.862;6.494;2023-09-30T10:29:59;20.80;99.90
2757;DHT22;1386;50.862;6.494;2023-09-30T10:35:45;21.00;99.90
2757;DHT22;1386;50.862;6.494;2023-09-30T10:38:40;21.00;99.90
2757;DHT22;1386;50.862;6.494;2023-09-30T10:41:07;21.00;99.90
2757;DHT22;1386;50.862;6.494;2023-09-30T10:43:36;21.00;99.90
2757;DHT22;1386;50.862;6.494;2023-09-30T10:46:29;20.90;99.90
2757;DHT22;1386;50.862;6.494;2023-09-30T10:49:15;20.80;99.90
2757;DHT22;1386;50.862;6.494;2023-09-30T10:51:43;20.80;99.90
2757;DHT22;1386;50.862;6.494;2023-09-30T10:54:12;21.00;99.90
2757;DHT22;1386;50.862;6.494;2023-09-30T10:56:39;21.10;99.90
2757;DHT22;1386;50.862;6.494;2023-09-30T10:59:06;21.10;99.90
2757;DHT22;1386;50.862;6.494;2023-09-30T11:01:36;21.10;99.90
2757;DHT22;1386;50.862;6.494;2023-09-30T11:04:06;21.00;99.90
2757;DHT22;1386;50.862;6.494;2023-09-30T11:06:34;21.20;99.90
2757;DHT22;1386;50.862;6.494;2023-09-30T11:09:01;21.30;99.90
2757;DHT22;1386;50.862;6.494;2023-09-30T11:11:39;21.30;99.90
2757;DHT22;1386;50.862;6.494;2023-09-30T11:14:19;21.30;99.90
2757;DHT22;1386;50.862;6.494;2023-09-30T11:16:48;21.30;99.90
2757;DHT22;1386;50.862;6.494;2023-09-30T11:19:15;21.20;99.90
2757;DHT22;1386;50.862;6.494;2023-09-30T11:21:43;21.20;99.90
2757;DHT22;1386;50.862;6.494;2023-09-30T11:24:10;21.30;99.90
2757;DHT22;1386;50.862;6.494;2023-09-30T11:26:38;21.30;99.90
2757;DHT22;1386;50.862;6.494;2023-09-30T11:29:07;21.30;99.90
2757;DHT22;1386;50.862;6.494;2023-09-30T11:31:37;21.40;99.90
2757;DHT22;1386;50.862;6.494;2023-09-30T11:34:06;21.40;99.90
2757;DHT22;1386;50.862;6.494;2023-09-30T11:36:34;21.60;99.90
2757;DHT22;1386;50.862;6.494;2023-09-30T11:39:06;21.70;99.90
2757;DHT22;1386;50.862;6.494;2023-09-30T11:41:35;21.80;99.90
2757;DHT22;1386;50.862;6.494;2023-09-30T11:44:05;21.80;99.90
2757;DHT22;1386;50.862;6.494;2023-09-30T11:46:47;21.80;99.90
2757;DHT22;1386;50.862;6.494;2023-09-30T11:49:26;21.90;99.90
2757;DHT22;1386;50.862;6.494;2023-09-30T11:51:53;21.90;99.90
2757;DHT22;1386;50.862;6.494;2023-09-30T11:54:20;21.90;99.90
2757;DHT22;1386;50.862;6.494;2023-09-30T11:56:48;21.90;99.90
2757;DHT22;1386;50.862;6.494;2023-09-30T11:59:17;21.90;99.90
2757;DHT22;1386;50.862;6.494;2023-09-30T12:01:48;21.80;99.90
2757;DHT22;1386;50.862;6.494;2023-09-30T12:04:15;21.60;99.90
2757;DHT22;1386;50.862;6.494;2023-09-30T12:06:46;21.60;99.90
2757;DHT22;1386;50.862;6.494;2023-09-30T12:09:15;21.80;99.90
2757;DHT22;1386;50.862;6.494;2023-09-30T12:11:48;21.90;99.90
2757;DHT22;1386;50.862;6.494;2023-09-30T12:14:15;21.90;99.90
2757;DHT22;1386;50.862;6.494;2023-09-30T12:16:41;21.80;99.90
2757;DHT22;1386;50.862;6.494;2023-09-30T12:19:11;21.70;99.90
2757;DHT22;1386;50.862;6.494;2023-09-30T12:21:39;21.60;99.90
2757;DHT22;1386;50.862;6.494;2023-09-30T12:24:08;21.50;99.90
2757;DHT22;1386;50.862;6.494;2023-09-30T12:26:36;21.50;99.90
2757;DHT22;1386;50.862;6.494;2023-09-30T12:29:04;21.60;99.90
2757;DHT22;1386;50.862;6.494;2023-09-30T12:31:31;21.50;99.90
2757;DHT22;1386;50.862;6.494;2023-09-30T12:33:59;21.50;99.90
2757;DHT22;1386;50.862;6.494;2023-09-30T12:36:27;21.70;99.90
2757;DHT22;1386;50.862;6.494;2023-09-30T12:38:54;21.90;99.90
2757;DHT22;1386;50.862;6.494;2023-09-30T12:41:23;21.90;99.90
2757;DHT22;1386;50.862;6.494;2023-09-30T12:43:49;21.80;99.90
2757;DHT22;1386;50.862;6.494;2023-09-30T12:46:16;21.80;99.90
2757;DHT22;1386;50.862;6.494;2023-09-30T12:48:46;22.00;99.90
2757;DHT22;1386;50.862;6.494;2023-09-30T12:51:14;22.00;99.90
2757;DHT22;1386;50.862;6.494;2023-09-30T12:53:41;22.10;99.90
2757;DHT22;1386;50.862;6.494;2023-09-30T12:56:09;22.10;99.90
2757;DHT22;1386;50.862;6.494;2023-09-30T12:58:39;22.10;99.90
2757;DHT22;1386;50.862;6.494;2023-09-30T13:01:06;22.00;99.90
2757;DHT22;1386;50.862;6.494;2023-09-30T13:03:37;21.90;99.90
2757;DHT22;1386;50.862;6.494;2023-09-30T13:06:04;22.00;99.90
2757;DHT22;1386;50.862;6.494;2023-09-30T13:08:32;22.00;99.90
2757;DHT22;1386;50.862;6.494;2023-09-30T13:11:02;22.00;99.90
2757;DHT22;1386;50.862;6.494;2023-09-30T13:13:29;21.90;99.90
2757;DHT22;1386;50.862;6.494;2023-09-30T13:15:57;21.80;99.90
2757;DHT22;1386;50.862;6.494;2023-09-30T13:18:24;21.70;99.90
2757;DHT22;1386;50.862;6.494;2023-09-30T13:20:51;21.60;99.90
2757;DHT22;1386;50.862;6.494;2023-09-30T13:23:19;21.50;99.90
2757;DHT22;1386;50.862;6.494;2023-09-30T13:25:46;21.50;99.90
2757;DHT22;1386;50.862;6.494;2023-09-30T13:28:13;21.40;99.90
2757;DHT22;1386;50.862;6.494;2023-09-30T13:30:40;21.40;99.90
2757;DHT22;1386;50.862;6.494;2023-09-30T13:33:09;21.40;99.90
2757;DHT22;1386;50.862;6.494;2023-09-30T13:35:35;21.50;99.90
2757;DHT22;1386;50.862;6.494;2023-09-30T13:38:03;21.50;99.90
2757;DHT22;1386;50.862;6.494;2023-09-30T13:40:30;21.40;99.90
2757;DHT22;1386;50.862;6.494;2023-09-30T13:42:57;21.40;99.90
2757;DHT22;1386;50.862;6.494;2023-09-30T13:45:25;21.30;99.90
2757;DHT22;1386;50.862;6.494;2023-09-30T13:47:56;21.30;99.90
2757;DHT22;1386;50.862;6.494;2023-09-30T13:50:25;21.40;99.90
2757;DHT22;1386;50.862;6.494;2023-09-30T13:52:51;21.20;99.90
2757;DHT22;1386;50.862;6.494;2023-09-30T13:55:18;21.20;99.90
2757;DHT22;1386;50.862;6.494;2023-09-30T13:57:45;21.30;99.90
2757;DHT22;1386;50.862;6.494;2023-09-30T14:00:13;21.30;99.90
2757;DHT22;1386;50.862;6.494;2023-09-30T14:02:42;21.30;99.90
2757;DHT22;1386;50.862;6.494;2023-09-30T14:05:09;21.10;99.90
2757;DHT22;1386;50.862;6.494;2023-09-30T14:07:38;21.10;99.90
2757;DHT22;1386;50.862;6.494;2023-09-30T14:10:07;21.10;99.90
2757;DHT22;1386;50.862;6.494;2023-09-30T14:12:35;21.00;99.90
2757;DHT22;1386;50.862;6.494;2023-09-30T14:15:03;21.10;99.90
2757;DHT22;1386;50.862;6.494;2023-09-30T14:17:31;21.00;99.90
2757;DHT22;1386;50.862;6.494;2023-09-30T14:19:58;21.00;99.90
2757;DHT22;1386;50.862;6.494;2023-09-30T14:22:25;21.00;99.90
2757;DHT22;1386;50.862;6.494;2023-09-30T14:24:54;21.00;99.90
2757;DHT22;1386;50.862;6.494;2023-09-30T14:27:20;21.00;99.90
2757;DHT22;1386;50.862;6.494;2023-09-30T14:29:47;20.90;99.90
2757;DHT22;1386;50.862;6.494;2023-09-30T14:32:14;20.90;99.90
2757;DHT22;1386;50.862;6.494;2023-09-30T14:34:41;20.90;99.90
2757;DHT22;1386;50.862;6.494;2023-09-30T14:37:08;20.90;99.90
2757;DHT22;1386;50.862;6.494;2023-09-30T14:39:35;20.90;99.90
2757;DHT22;1386;50.862;6.494;2023-09-30T14:42:03;20.80;99.90
2757;DHT22;1386;50.862;6.494;2023-09-30T14:44:30;20.90;99.90
2757;DHT22;1386;50.862;6.494;2023-09-30T14:46:57;20.80;99.90
2757;DHT22;1386;50.862;6.494;2023-09-30T14:49:24;20.80;99.90
2757;DHT22;1386;50.862;6.494;2023-09-30T14:51:51;20.80;99.90
2757;DHT22;1386;50.862;6.494;2023-09-30T14:54:18;20.80;99.90
2757;DHT22;1386;50.862;6.494;2023-09-30T14:56:45;20.70;99.90
2757;DHT22;1386;50.862;6.494;2023-09-30T14:59:13;20.70;99.90
2757;DHT22;1386;50.862;6.494;2023-09-30T15:01:40;20.60;99.90
2757;DHT22;1386;50.862;6.494;2023-09-30T15:04:07;20.50;99.90
2757;DHT22;1386;50.862;6.494;2023-09-30T15:06:34;20.50;99.90
2757;DHT22;1386;50.862;6.494;2023-09-30T15:09:01;20.40;99.90
2757;DHT22;1386;50.862;6.494;2023-09-30T15:11:29;20.40;99.90
2757;DHT22;1386;50.862;6.494;2023-09-30T15:13:56;20.30;99.90
2757;DHT22;1386;50.862;6.494;2023-09-30T15:16:25;20.30;99.90
2757;DHT22;1386;50.862;6.494;2023-09-30T15:18:52;20.30;99.90
2757;DHT22;1386;50.862;6.494;2023-09-30T15:21:19;20.30;99.90
2757;DHT22;1386;50.862;6.494;2023-09-30T15:23:46;20.20;99.90
2757;DHT22;1386;50.862;6.494;2023-09-30T15:26:13;20.20;99.90
2757;DHT22;1386;50.862;6.494;2023-09-30T15:28:41;20.20;99.90
2757;DHT22;1386;50.862;6.494;2023-09-30T15:31:10;20.20;99.90
2757;DHT22;1386;50.862;6.494;2023-09-30T15:33:38;20.10;99.90
2757;DHT22;1386;50.862;6.494;2023-09-30T15:36:09;20.10;99.90
2757;DHT22;1386;50.862;6.494;2023-09-30T15:38:36;20.20;99.90
2757;DHT22;1386;50.862;6.494;2023-09-30T15:41:03;20.10;99.90
2757;DHT22;1386;50.862;6.494;2023-09-30T15:43:30;20.10;99.90
2757;DHT22;1386;50.862;6.494;2023-09-30T15:45:58;20.10;99.90
2757;DHT22;1386;50.862;6.494;2023-09-30T15:48:25;20.00;99.90
2757;DHT22;1386;50.862;6.494;2023-09-30T15:50:53;20.00;99.90
2757;DHT22;1386;50.862;6.494;2023-09-30T15:53:20;20.00;99.90
2757;DHT22;1386;50.862;6.494;2023-09-30T15:55:47;19.90;99.90
2757;DHT22;1386;50.862;6.494;2023-09-30T15:58:14;19.90;99.90
2757;DHT22;1386;50.862;6.494;2023-09-30T16:00:41;19.90;99.90
2757;DHT22;1386;50.862;6.494;2023-09-30T16:03:09;19.80;99.90
2757;DHT22;1386;50.862;6.494;2023-09-30T16:05:37;19.80;99.90
2757;DHT22;1386;50.862;6.494;2023-09-30T16:08:08;19.80;99.90
2757;DHT22;1386;50.862;6.494;2023-09-30T16:10:36;19.70;99.90
2757;DHT22;1386;50.862;6.494;2023-09-30T16:13:04;19.70;99.90
2757;DHT22;1386;50.862;6.494;2023-09-30T16:15:33;19.70;99.90
2757;DHT22;1386;50.862;6.494;2023-09-30T16:18:04;19.60;99.90
2757;DHT22;1386;50.862;6.494;2023-09-30T16:20:31;19.70;99.90
2757;DHT22;1386;50.862;6.494;2023-09-30T16:23:01;19.80;99.90
2757;DHT22;1386;50.862;6.494;2023-09-30T16:25:29;19.90;99.90
2757;DHT22;1386;50.862;6.494;2023-09-30T16:27:56;19.80;99.90
2757;DHT22;1386;50.862;6.494;2023-09-30T16:30:23;19.60;99.90
2757;DHT22;1386;50.862;6.494;2023-09-30T16:32:50;19.50;99.90
2757;DHT22;1386;50.862;6.494;2023-09-30T16:35:17;19.40;99.90
2757;DHT22;1386;50.862;6.494;2023-09-30T16:37:44;19.30;99.90
2757;DHT22;1386;50.862;6.494;2023-09-30T16:40:11;19.20;99.90
2757;DHT22;1386;50.862;6.494;2023-09-30T16:42:39;19.10;99.90
2757;DHT22;1386;50.862;6.494;2023-09-30T16:45:07;19.00;99.90
2757;DHT22;1386;50.862;6.494;2023-09-30T16:47:35;18.90;99.90
2757;DHT22;1386;50.862;6.494;2023-09-30T16:50:02;18.80;99.90
2757;DHT22;1386;50.862;6.494;2023-09-30T16:59:30;18.60;99.90
2757;DHT22;1386;50.862;6.494;2023-09-30T17:01:57;18.50;99.90
2757;DHT22;1386;50.862;6.494;2023-09-30T17:07:29;18.40;99.90
2757;DHT22;1386;50.862;6.494;2023-09-30T17:09:56;18.30;99.90
2757;DHT22;1386;50.862;6.494;2023-09-30T17:12:24;18.20;99.90
2757;DHT22;1386;50.862;6.494;2023-09-30T17:14:55;18.10;99.90
2757;DHT22;1386;50.862;6.494;2023-09-30T17:17:33;18.00;99.90
2757;DHT22;1386;50.862;6.494;2023-09-30T17:26:47;17.70;99.90
2757;DHT22;1386;50.862;6.494;2023-09-30T17:29:28;17.70;99.90
2757;DHT22;1386;50.862;6.494;2023-09-30T17:39:06;17.70;99.90
2757;DHT22;1386;50.862;6.494;2023-09-30T17:41:37;17.50;99.90
2757;DHT22;1386;50.862;6.494;2023-09-30T17:45:00;17.50;99.90
2757;DHT22;1386;50.862;6.494;2023-09-30T17:49:10;17.40;99.90
2757;DHT22;1386;50.862;6.494;2023-09-30T17:51:12;17.30;99.90
2757;DHT22;1386;50.862;6.494;2023-09-30T17:53:51;17.20;99.90
2757;DHT22;1386;50.862;6.494;2023-09-30T17:56:21;17.20;99.90
2757;DHT22;1386;50.862;6.494;2023-09-30T17:58:50;17.10;99.90
2757;DHT22;1386;50.862;6.494;2023-09-30T18:01:18;17.10;99.90
2757;DHT22;1386;50.862;6.494;2023-09-30T18:03:48;17.00;99.90
2757;DHT22;1386;50.862;6.494;2023-09-30T18:06:16;17.00;99.90
2757;DHT22;1386;50.862;6.494;2023-09-30T18:08:44;17.00;99.90
2757;DHT22;1386;50.862;6.494;2023-09-30T18:11:12;16.90;99.90
2757;DHT22;1386;50.862;6.494;2023-09-30T18:13:39;16.90;99.90
2757;DHT22;1386;50.862;6.494;2023-09-30T18:16:07;16.80;99.90
2757;DHT22;1386;50.862;6.494;2023-09-30T18:18:35;16.70;99.90
2757;DHT22;1386;50.862;6.494;2023-09-30T18:21:02;16.60;99.90
2757;DHT22;1386;50.862;6.494;2023-09-30T18:23:31;16.60;99.90
2757;DHT22;1386;50.862;6.494;2023-09-30T18:25:58;16.60;99.90
2757;DHT22;1386;50.862;6.494;2023-09-30T18:28:25;16.50;99.90
2757;DHT22;1386;50.862;6.494;2023-09-30T18:30:54;16.50;99.90
2757;DHT22;1386;50.862;6.494;2023-09-30T18:33:21;16.50;99.90
2757;DHT22;1386;50.862;6.494;2023-09-30T18:35:48;16.40;99.90
2757;DHT22;1386;50.862;6.494;2023-09-30T18:38:15;16.40;99.90
2757;DHT22;1386;50.862;6.494;2023-09-30T18:40:43;16.30;99.90
2757;DHT22;1386;50.862;6.494;2023-09-30T18:43:12;16.40;99.90
2757;DHT22;1386;50.862;6.494;2023-09-30T18:45:39;16.30;99.90
2757;DHT22;1386;50.862;6.494;2023-09-30T18:48:06;16.30;99.90
2757;DHT22;1386;50.862;6.494;2023-09-30T18:50:38;16.30;99.90
2757;DHT22;1386;50.862;6.494;2023-09-30T18:53:07;16.20;99.90
2757;DHT22;1386;50.862;6.494;2023-09-30T18:55:35;16.20;99.90
2757;DHT22;1386;50.862;6.494;2023-09-30T18:58:05;16.20;99.90
2757;DHT22;1386;50.862;6.494;2023-09-30T19:00:43;16.10;99.90
2757;DHT22;1386;50.862;6.494;2023-09-30T19:03:10;16.10;99.90
2757;DHT22;1386;50.862;6.494;2023-09-30T19:05:46;16.00;99.90
2757;DHT22;1386;50.862;6.494;2023-09-30T19:08:19;15.90;99.90
2757;DHT22;1386;50.862;6.494;2023-09-30T19:10:48;15.90;99.90
2757;DHT22;1386;50.862;6.494;2023-09-30T19:13:16;15.90;99.90
2757;DHT22;1386;50.862;6.494;2023-09-30T19:15:43;15.80;99.90
2757;DHT22;1386;50.862;6.494;2023-09-30T19:18:11;15.80;99.90
2757;DHT22;1386;50.862;6.494;2023-09-30T19:20:42;15.70;99.90
2757;DHT22;1386;50.862;6.494;2023-09-30T19:23:09;15.70;99.90
2757;DHT22;1386;50.862;6.494;2023-09-30T19:29:02;15.60;99.90
2757;DHT22;1386;50.862;6.494;2023-09-30T19:31:29;15.50;99.90
2757;DHT22;1386;50.862;6.494;2023-09-30T19:33:56;15.50;99.90
2757;DHT22;1386;50.862;6.494;2023-09-30T19:36:23;15.50;99.90
2757;DHT22;1386;50.862;6.494;2023-09-30T19:38:51;15.50;99.90
2757;DHT22;1386;50.862;6.494;2023-09-30T19:41:18;15.50;99.90
2757;DHT22;1386;50.862;6.494;2023-09-30T19:43:47;15.50;99.90
2757;DHT22;1386;50.862;6.494;2023-09-30T19:46:34;15.50;99.90
2757;DHT22;1386;50.862;6.494;2023-09-30T19:49:01;15.50;99.90
2757;DHT22;1386;50.862;6.494;2023-09-30T19:51:28;15.40;99.90
2757;DHT22;1386;50.862;6.494;2023-09-30T19:53:54;15.40;99.90
2757;DHT22;1386;50.862;6.494;2023-09-30T19:56:23;15.40;99.90
2757;DHT22;1386;50.862;6.494;2023-09-30T19:58:50;15.40;99.90
2757;DHT22;1386;50.862;6.494;2023-09-30T20:01:17;15.40;99.90
2757;DHT22;1386;50.862;6.494;2023-09-30T20:03:46;15.40;99.90
2757;DHT22;1386;50.862;6.494;2023-09-30T20:06:20;15.30;99.90
2757;DHT22;1386;50.862;6.494;2023-09-30T20:08:49;15.30;99.90
2757;DHT22;1386;50.862;6.494;2023-09-30T20:11:19;15.30;99.90
2757;DHT22;1386;50.862;6.494;2023-09-30T20:13:46;15.20;99.90
2757;DHT22;1386;50.862;6.494;2023-09-30T20:16:13;15.20;99.90
2757;DHT22;1386;50.862;6.494;2023-09-30T20:18:40;15.10;99.90
2757;DHT22;1386;50.862;6.494;2023-09-30T20:21:08;15.10;99.90
2757;DHT22;1386;50.862;6.494;2023-09-30T20:26:56;15.00;99.90
2757;DHT22;1386;50.862;6.494;2023-09-30T20:29:30;15.00;99.90
2757;DHT22;1386;50.862;6.494;2023-09-30T20:32:28;14.90;99.90
2757;DHT22;1386;50.862;6.494;2023-09-30T20:34:57;14.90;99.90
2757;DHT22;1386;50.862;6.494;2023-09-30T20:37:26;14.90;99.90
2757;DHT22;1386;50.862;6.494;2023-09-30T20:39:53;14.80;99.90
2757;DHT22;1386;50.862;6.494;2023-09-30T20:42:20;14.80;99.90
2757;DHT22;1386;50.862;6.494;2023-09-30T20:44:47;14.80;99.90
2757;DHT22;1386;50.862;6.494;2023-09-30T20:47:15;14.70;99.90
2757;DHT22;1386;50.862;6.494;2023-09-30T20:49:42;14.70;99.90
2757;DHT22;1386;50.862;6.494;2023-09-30T20:52:09;14.60;99.90
2757;DHT22;1386;50.862;6.494;2023-09-30T20:54:37;14.60;99.90
2757;DHT22;1386;50.862;6.494;2023-09-30T20:57:04;14.60;99.90
2757;DHT22;1386;50.862;6.494;2023-09-30T20:59:31;14.60;99.90
2757;DHT22;1386;50.862;6.494;2023-09-30T21:01:59;14.50;99.90
2757;DHT22;1386;50.862;6.494;2023-09-30T21:04:26;14.50;99.90